sensor_id;sensor_type;location;lat;lon;timestamp;P1;durP1;ratioP1;P2;durP2;ratioP2
21833;SDS011;11079;51.092;3.458;2022-12-07T00:01:33;1.40;;;1.00;;
21833;SDS011;11079;51.092;3.458;2022-12-07T00:04:01;2.15;;;1.00;;
21833;SDS011;11079;51.092;3.458;2022-12-07T00:06:35;2.40;;;1.00;;
21833;SDS011;11079;51.092;3.458;2022-12-07T00:09:03;2.55;;;1.10;;
21833;SDS011;11079;51.092;3.458;2022-12-07T00:11:29;1.50;;;1.00;;
21833;SDS011;11079;51.092;3.458;2022-12-07T00:13:56;2.63;;;1.25;;
21833;SDS011;11079;51.092;3.458;2022-12-07T00:16:23;1.98;;;1.08;;
21833;SDS011;11079;51.092;3.458;2022-12-07T00:18:51;1.52;;;0.80;;
21833;SDS011;11079;51.092;3.458;2022-12-07T00:21:18;2.70;;;1.20;;
21833;SDS011;11079;51.092;3.458;2022-12-07T00:23:49;1.70;;;1.15;;
21833;SDS011;11079;51.092;3.458;2022-12-07T00:26:19;1.95;;;0.82;;
21833;SDS011;11079;51.092;3.458;2022-12-07T00:28:49;2.50;;;1.02;;
21833;SDS011;11079;51.092;3.458;2022-12-07T00:31:17;1.60;;;0.90;;
21833;SDS011;11079;51.092;3.458;2022-12-07T00:33:44;2.25;;;1.13;;
21833;SDS011;11079;51.092;3.458;2022-12-07T00:36:11;0.98;;;0.80;;
21833;SDS011;11079;51.092;3.458;2022-12-07T00:38:39;1.35;;;0.90;;
21833;SDS011;11079;51.092;3.458;2022-12-07T00:41:09;1.77;;;1.00;;
21833;SDS011;11079;51.092;3.458;2022-12-07T00:43:37;1.00;;;0.70;;
21833;SDS011;11079;51.092;3.458;2022-12-07T00:46:03;2.55;;;1.45;;
21833;SDS011;11079;51.092;3.458;2022-12-07T00:48:29;1.90;;;0.90;;
21833;SDS011;11079;51.092;3.458;2022-12-07T00:50:54;1.70;;;0.95;;
21833;SDS011;11079;51.092;3.458;2022-12-07T00:53:20;2.00;;;0.98;;
21833;SDS011;11079;51.092;3.458;2022-12-07T00:55:46;1.40;;;1.05;;
21833;SDS011;11079;51.092;3.458;2022-12-07T00:58:12;0.80;;;0.80;;
21833;SDS011;11079;51.092;3.458;2022-12-07T01:00:38;0.95;;;0.70;;
21833;SDS011;11079;51.092;3.458;2022-12-07T01:03:05;1.73;;;0.90;;
21833;SDS011;11079;51.092;3.458;2022-12-07T01:05:32;1.52;;;1.20;;
21833;SDS011;11079;51.092;3.458;2022-12-07T01:07:58;1.40;;;0.90;;
21833;SDS011;11079;51.092;3.458;2022-12-07T01:10:24;1.70;;;1.15;;
21833;SDS011;11079;51.092;3.458;2022-12-07T01:12:49;1.80;;;1.00;;
21833;SDS011;11079;51.092;3.458;2022-12-07T01:15:15;1.20;;;0.90;;
21833;SDS011;11079;51.092;3.458;2022-12-07T01:17:40;0.80;;;0.80;;
21833;SDS011;11079;51.092;3.458;2022-12-07T01:20:06;1.52;;;0.90;;
21833;SDS011;11079;51.092;3.458;2022-12-07T01:22:36;1.33;;;0.90;;
21833;SDS011;11079;51.092;3.458;2022-12-07T01:25:03;1.30;;;0.80;;
21833;SDS011;11079;51.092;3.458;2022-12-07T01:27:29;1.25;;;0.93;;
21833;SDS011;11079;51.092;3.458;2022-12-07T01:29:54;1.33;;;0.80;;
21833;SDS011;11079;51.092;3.458;2022-12-07T01:32:20;1.17;;;0.70;;
21833;SDS011;11079;51.092;3.458;2022-12-07T01:34:47;1.75;;;0.98;;
21833;SDS011;11079;51.092;3.458;2022-12-07T01:37:13;1.60;;;0.98;;
21833;SDS011;11079;51.092;3.458;2022-12-07T01:39:39;1.48;;;0.70;;
21833;SDS011;11079;51.092;3.458;2022-12-07T01:42:04;1.48;;;0.82;;
21833;SDS011;11079;51.092;3.458;2022-12-07T01:44:30;0.88;;;0.73;;
21833;SDS011;11079;51.092;3.458;2022-12-07T01:46:58;1.00;;;0.77;;
21833;SDS011;11079;51.092;3.458;2022-12-07T01:49:44;1.40;;;0.90;;
21833;SDS011;11079;51.092;3.458;2022-12-07T01:52:15;1.20;;;0.90;;
21833;SDS011;11079;51.092;3.458;2022-12-07T01:54:44;1.25;;;0.90;;
21833;SDS011;11079;51.092;3.458;2022-12-07T01:57:10;1.30;;;0.90;;
21833;SDS011;11079;51.092;3.458;2022-12-07T01:59:38;1.50;;;0.82;;
21833;SDS011;11079;51.092;3.458;2022-12-07T02:02:04;1.25;;;0.80;;
21833;SDS011;11079;51.092;3.458;2022-12-07T02:04:35;0.95;;;0.70;;
21833;SDS011;11079;51.092;3.458;2022-12-07T02:07:01;1.25;;;0.80;;
21833;SDS011;11079;51.092;3.458;2022-12-07T02:09:28;1.10;;;0.98;;
21833;SDS011;11079;51.092;3.458;2022-12-07T02:11:53;1.90;;;0.95;;
21833;SDS011;11079;51.092;3.458;2022-12-07T02:14:20;1.02;;;0.80;;
21833;SDS011;11079;51.092;3.458;2022-12-07T02:16:48;1.35;;;0.95;;
21833;SDS011;11079;51.092;3.458;2022-12-07T02:22:01;2.03;;;1.08;;
21833;SDS011;11079;51.092;3.458;2022-12-07T02:27:23;1.30;;;0.88;;
21833;SDS011;11079;51.092;3.458;2022-12-07T02:30:13;0.93;;;0.73;;
21833;SDS011;11079;51.092;3.458;2022-12-07T02:35:39;0.85;;;0.75;;
21833;SDS011;11079;51.092;3.458;2022-12-07T02:43:24;1.15;;;0.80;;
21833;SDS011;11079;51.092;3.458;2022-12-07T02:45:53;1.45;;;0.70;;
21833;SDS011;11079;51.092;3.458;2022-12-07T02:48:24;0.75;;;0.68;;
21833;SDS011;11079;51.092;3.458;2022-12-07T02:50:52;1.25;;;0.80;;
21833;SDS011;11079;51.092;3.458;2022-12-07T02:53:36;1.75;;;0.98;;
21833;SDS011;11079;51.092;3.458;2022-12-07T02:56:13;1.05;;;0.70;;
21833;SDS011;11079;51.092;3.458;2022-12-07T02:58:59;0.60;;;0.50;;
21833;SDS011;11079;51.092;3.458;2022-12-07T03:01:30;0.75;;;0.63;;
21833;SDS011;11079;51.092;3.458;2022-12-07T03:06:43;1.25;;;0.70;;
21833;SDS011;11079;51.092;3.458;2022-12-07T03:09:37;0.52;;;0.50;;
21833;SDS011;11079;51.092;3.458;2022-12-07T03:12:11;0.95;;;0.60;;
21833;SDS011;11079;51.092;3.458;2022-12-07T03:14:47;0.88;;;0.70;;
21833;SDS011;11079;51.092;3.458;2022-12-07T03:17:30;1.15;;;0.60;;
21833;SDS011;11079;51.092;3.458;2022-12-07T03:19:59;0.93;;;0.65;;
21833;SDS011;11079;51.092;3.458;2022-12-07T03:22:28;0.80;;;0.60;;
21833;SDS011;11079;51.092;3.458;2022-12-07T03:25:00;1.08;;;0.70;;
21833;SDS011;11079;51.092;3.458;2022-12-07T03:27:31;1.27;;;0.63;;
21833;SDS011;11079;51.092;3.458;2022-12-07T03:30:05;0.93;;;0.73;;
21833;SDS011;11079;51.092;3.458;2022-12-07T03:32:52;1.15;;;0.73;;
21833;SDS011;11079;51.092;3.458;2022-12-07T03:35:33;0.45;;;0.45;;
21833;SDS011;11079;51.092;3.458;2022-12-07T03:38:17;1.05;;;0.77;;
21833;SDS011;11079;51.092;3.458;2022-12-07T03:41:03;1.00;;;0.60;;
21833;SDS011;11079;51.092;3.458;2022-12-07T03:43:33;2.38;;;0.70;;
21833;SDS011;11079;51.092;3.458;2022-12-07T03:46:07;0.88;;;0.60;;
21833;SDS011;11079;51.092;3.458;2022-12-07T03:49:11;1.20;;;0.68;;
21833;SDS011;11079;51.092;3.458;2022-12-07T03:54:18;1.75;;;0.75;;
21833;SDS011;11079;51.092;3.458;2022-12-07T03:56:51;1.00;;;0.63;;
21833;SDS011;11079;51.092;3.458;2022-12-07T03:59:18;0.93;;;0.70;;
21833;SDS011;11079;51.092;3.458;2022-12-07T04:01:45;1.10;;;0.65;;
21833;SDS011;11079;51.092;3.458;2022-12-07T04:04:17;0.73;;;0.57;;
21833;SDS011;11079;51.092;3.458;2022-12-07T04:06:43;0.55;;;0.50;;
21833;SDS011;11079;51.092;3.458;2022-12-07T04:09:09;0.77;;;0.57;;
21833;SDS011;11079;51.092;3.458;2022-12-07T04:11:34;1.00;;;0.52;;
21833;SDS011;11079;51.092;3.458;2022-12-07T04:14:00;1.23;;;0.70;;
21833;SDS011;11079;51.092;3.458;2022-12-07T04:16:50;0.77;;;0.52;;
21833;SDS011;11079;51.092;3.458;2022-12-07T04:19:18;0.98;;;0.80;;
21833;SDS011;11079;51.092;3.458;2022-12-07T04:21:46;0.73;;;0.60;;
21833;SDS011;11079;51.092;3.458;2022-12-07T04:24:13;1.10;;;0.70;;
21833;SDS011;11079;51.092;3.458;2022-12-07T04:26:40;0.85;;;0.70;;
21833;SDS011;11079;51.092;3.458;2022-12-07T04:29:06;2.22;;;0.77;;
21833;SDS011;11079;51.092;3.458;2022-12-07T04:31:32;0.82;;;0.47;;
21833;SDS011;11079;51.092;3.458;2022-12-07T04:33:57;0.57;;;0.40;;
21833;SDS011;11079;51.092;3.458;2022-12-07T04:36:23;0.65;;;0.57;;
21833;SDS011;11079;51.092;3.458;2022-12-07T04:38:49;0.82;;;0.60;;
21833;SDS011;11079;51.092;3.458;2022-12-07T04:41:14;1.05;;;0.60;;
21833;SDS011;11079;51.092;3.458;2022-12-07T04:43:40;0.80;;;0.50;;
21833;SDS011;11079;51.092;3.458;2022-12-07T04:46:05;1.17;;;0.60;;
21833;SDS011;11079;51.092;3.458;2022-12-07T04:48:31;0.82;;;0.60;;
21833;SDS011;11079;51.092;3.458;2022-12-07T04:50:56;0.90;;;0.70;;
21833;SDS011;11079;51.092;3.458;2022-12-07T04:53:22;1.23;;;0.65;;
21833;SDS011;11079;51.092;3.458;2022-12-07T04:55:48;0.75;;;0.50;;
21833;SDS011;11079;51.092;3.458;2022-12-07T04:58:13;1.25;;;0.68;;
21833;SDS011;11079;51.092;3.458;2022-12-07T05:00:39;1.63;;;0.60;;
21833;SDS011;11079;51.092;3.458;2022-12-07T05:03:05;1.00;;;0.60;;
21833;SDS011;11079;51.092;3.458;2022-12-07T05:05:30;0.60;;;0.57;;
21833;SDS011;11079;51.092;3.458;2022-12-07T05:07:56;0.88;;;0.70;;
21833;SDS011;11079;51.092;3.458;2022-12-07T05:10:22;1.13;;;0.47;;
21833;SDS011;11079;51.092;3.458;2022-12-07T05:12:47;0.70;;;0.57;;
21833;SDS011;11079;51.092;3.458;2022-12-07T05:15:13;1.02;;;0.50;;
21833;SDS011;11079;51.092;3.458;2022-12-07T05:17:40;1.20;;;0.60;;
21833;SDS011;11079;51.092;3.458;2022-12-07T05:20:06;1.30;;;0.50;;
21833;SDS011;11079;51.092;3.458;2022-12-07T05:22:33;0.55;;;0.50;;
21833;SDS011;11079;51.092;3.458;2022-12-07T05:24:59;0.65;;;0.50;;
21833;SDS011;11079;51.092;3.458;2022-12-07T05:27:24;1.33;;;0.73;;
21833;SDS011;11079;51.092;3.458;2022-12-07T05:29:50;0.50;;;0.35;;
21833;SDS011;11079;51.092;3.458;2022-12-07T05:32:16;1.10;;;0.50;;
21833;SDS011;11079;51.092;3.458;2022-12-07T05:34:42;1.27;;;0.50;;
21833;SDS011;11079;51.092;3.458;2022-12-07T05:37:08;0.40;;;0.38;;
21833;SDS011;11079;51.092;3.458;2022-12-07T05:39:33;0.77;;;0.50;;
21833;SDS011;11079;51.092;3.458;2022-12-07T05:41:59;0.70;;;0.63;;
21833;SDS011;11079;51.092;3.458;2022-12-07T05:44:37;0.70;;;0.40;;
21833;SDS011;11079;51.092;3.458;2022-12-07T05:47:03;1.20;;;0.68;;
21833;SDS011;11079;51.092;3.458;2022-12-07T05:49:29;0.73;;;0.50;;
21833;SDS011;11079;51.092;3.458;2022-12-07T05:51:56;1.05;;;0.82;;
21833;SDS011;11079;51.092;3.458;2022-12-07T05:54:21;0.88;;;0.43;;
21833;SDS011;11079;51.092;3.458;2022-12-07T05:56:47;0.75;;;0.50;;
21833;SDS011;11079;51.092;3.458;2022-12-07T05:59:13;0.57;;;0.40;;
21833;SDS011;11079;51.092;3.458;2022-12-07T06:01:55;0.88;;;0.47;;
21833;SDS011;11079;51.092;3.458;2022-12-07T06:04:29;0.40;;;0.40;;
21833;SDS011;11079;51.092;3.458;2022-12-07T06:06:57;0.68;;;0.43;;
21833;SDS011;11079;51.092;3.458;2022-12-07T06:09:24;0.50;;;0.50;;
21833;SDS011;11079;51.092;3.458;2022-12-07T06:11:50;0.38;;;0.38;;
21833;SDS011;11079;51.092;3.458;2022-12-07T06:14:35;0.40;;;0.40;;
21833;SDS011;11079;51.092;3.458;2022-12-07T06:17:00;0.50;;;0.50;;
21833;SDS011;11079;51.092;3.458;2022-12-07T06:19:26;0.57;;;0.57;;
21833;SDS011;11079;51.092;3.458;2022-12-07T06:21:52;0.85;;;0.60;;
21833;SDS011;11079;51.092;3.458;2022-12-07T06:24:18;1.08;;;0.60;;
21833;SDS011;11079;51.092;3.458;2022-12-07T06:26:44;1.17;;;0.47;;
21833;SDS011;11079;51.092;3.458;2022-12-07T06:29:10;0.68;;;0.50;;
21833;SDS011;11079;51.092;3.458;2022-12-07T06:31:36;0.60;;;0.50;;
21833;SDS011;11079;51.092;3.458;2022-12-07T06:34:04;0.73;;;0.57;;
21833;SDS011;11079;51.092;3.458;2022-12-07T06:36:31;0.50;;;0.40;;
21833;SDS011;11079;51.092;3.458;2022-12-07T06:38:57;1.35;;;0.68;;
21833;SDS011;11079;51.092;3.458;2022-12-07T06:41:22;0.40;;;0.40;;
21833;SDS011;11079;51.092;3.458;2022-12-07T06:43:48;0.40;;;0.40;;
21833;SDS011;11079;51.092;3.458;2022-12-07T06:46:14;0.68;;;0.45;;
21833;SDS011;11079;51.092;3.458;2022-12-07T06:48:40;0.88;;;0.88;;
21833;SDS011;11079;51.092;3.458;2022-12-07T06:51:06;0.32;;;0.30;;
21833;SDS011;11079;51.092;3.458;2022-12-07T06:53:32;0.50;;;0.50;;
21833;SDS011;11079;51.092;3.458;2022-12-07T06:55:58;0.95;;;0.50;;
21833;SDS011;11079;51.092;3.458;2022-12-07T06:58:23;0.70;;;0.50;;
21833;SDS011;11079;51.092;3.458;2022-12-07T07:00:49;0.45;;;0.45;;
21833;SDS011;11079;51.092;3.458;2022-12-07T07:03:15;0.40;;;0.40;;
21833;SDS011;11079;51.092;3.458;2022-12-07T07:05:41;1.00;;;0.50;;
21833;SDS011;11079;51.092;3.458;2022-12-07T07:08:08;0.70;;;0.40;;
21833;SDS011;11079;51.092;3.458;2022-12-07T07:10:34;0.70;;;0.50;;
21833;SDS011;11079;51.092;3.458;2022-12-07T07:13:00;0.95;;;0.50;;
21833;SDS011;11079;51.092;3.458;2022-12-07T07:15:25;0.30;;;0.30;;
21833;SDS011;11079;51.092;3.458;2022-12-07T07:17:51;0.52;;;0.40;;
21833;SDS011;11079;51.092;3.458;2022-12-07T07:20:17;0.75;;;0.40;;
21833;SDS011;11079;51.092;3.458;2022-12-07T07:22:42;0.47;;;0.30;;
21833;SDS011;11079;51.092;3.458;2022-12-07T07:25:08;0.47;;;0.32;;
21833;SDS011;11079;51.092;3.458;2022-12-07T07:27:34;0.40;;;0.40;;
21833;SDS011;11079;51.092;3.458;2022-12-07T07:29:59;1.02;;;0.50;;
21833;SDS011;11079;51.092;3.458;2022-12-07T07:32:25;0.88;;;0.52;;
21833;SDS011;11079;51.092;3.458;2022-12-07T07:34:51;0.40;;;0.40;;
21833;SDS011;11079;51.092;3.458;2022-12-07T07:37:16;0.98;;;0.63;;
21833;SDS011;11079;51.092;3.458;2022-12-07T07:39:42;0.55;;;0.50;;
21833;SDS011;11079;51.092;3.458;2022-12-07T07:42:07;0.40;;;0.40;;
21833;SDS011;11079;51.092;3.458;2022-12-07T07:44:33;0.65;;;0.40;;
21833;SDS011;11079;51.092;3.458;2022-12-07T07:46:59;0.85;;;0.40;;
21833;SDS011;11079;51.092;3.458;2022-12-07T07:49:25;0.82;;;0.55;;
21833;SDS011;11079;51.092;3.458;2022-12-07T07:51:51;1.05;;;0.75;;
21833;SDS011;11079;51.092;3.458;2022-12-07T07:54:16;2.90;;;0.80;;
21833;SDS011;11079;51.092;3.458;2022-12-07T07:56:42;1.60;;;0.68;;
21833;SDS011;11079;51.092;3.458;2022-12-07T07:59:07;3.17;;;1.33;;
21833;SDS011;11079;51.092;3.458;2022-12-07T08:01:33;1.45;;;1.10;;
21833;SDS011;11079;51.092;3.458;2022-12-07T08:03:59;1.50;;;1.00;;
21833;SDS011;11079;51.092;3.458;2022-12-07T08:06:25;2.72;;;1.80;;
21833;SDS011;11079;51.092;3.458;2022-12-07T08:08:51;3.22;;;2.05;;
21833;SDS011;11079;51.092;3.458;2022-12-07T08:11:17;2.92;;;1.55;;
21833;SDS011;11079;51.092;3.458;2022-12-07T08:13:44;2.75;;;1.70;;
21833;SDS011;11079;51.092;3.458;2022-12-07T08:16:11;5.68;;;1.77;;
21833;SDS011;11079;51.092;3.458;2022-12-07T08:18:37;3.58;;;1.65;;
21833;SDS011;11079;51.092;3.458;2022-12-07T08:21:05;3.63;;;1.60;;
21833;SDS011;11079;51.092;3.458;2022-12-07T08:23:32;3.83;;;1.60;;
21833;SDS011;11079;51.092;3.458;2022-12-07T08:26:02;4.07;;;1.58;;
21833;SDS011;11079;51.092;3.458;2022-12-07T08:28:29;3.25;;;1.65;;
21833;SDS011;11079;51.092;3.458;2022-12-07T08:31:02;2.92;;;1.42;;
21833;SDS011;11079;51.092;3.458;2022-12-07T08:33:29;3.05;;;1.08;;
21833;SDS011;11079;51.092;3.458;2022-12-07T08:35:54;4.10;;;1.60;;
21833;SDS011;11079;51.092;3.458;2022-12-07T08:38:24;5.10;;;1.63;;
21833;SDS011;11079;51.092;3.458;2022-12-07T08:40:54;4.82;;;1.70;;
21833;SDS011;11079;51.092;3.458;2022-12-07T08:43:20;3.13;;;1.40;;
21833;SDS011;11079;51.092;3.458;2022-12-07T08:45:47;2.67;;;1.27;;
21833;SDS011;11079;51.092;3.458;2022-12-07T08:48:16;3.53;;;1.50;;
21833;SDS011;11079;51.092;3.458;2022-12-07T08:50:46;2.05;;;1.35;;
21833;SDS011;11079;51.092;3.458;2022-12-07T08:53:13;3.63;;;1.50;;
21833;SDS011;11079;51.092;3.458;2022-12-07T08:55:38;2.70;;;1.40;;
21833;SDS011;11079;51.092;3.458;2022-12-07T08:58:04;2.97;;;1.20;;
21833;SDS011;11079;51.092;3.458;2022-12-07T09:00:30;2.55;;;1.23;;
21833;SDS011;11079;51.092;3.458;2022-12-07T09:02:56;1.65;;;1.02;;
21833;SDS011;11079;51.092;3.458;2022-12-07T09:05:21;2.45;;;1.45;;
21833;SDS011;11079;51.092;3.458;2022-12-07T09:07:48;1.80;;;1.30;;
21833;SDS011;11079;51.092;3.458;2022-12-07T09:10:19;7.82;;;1.50;;
21833;SDS011;11079;51.092;3.458;2022-12-07T09:12:44;2.65;;;1.35;;
21833;SDS011;11079;51.092;3.458;2022-12-07T09:15:10;2.28;;;1.20;;
21833;SDS011;11079;51.092;3.458;2022-12-07T09:17:36;2.45;;;1.33;;
21833;SDS011;11079;51.092;3.458;2022-12-07T09:20:03;2.63;;;1.50;;
21833;SDS011;11079;51.092;3.458;2022-12-07T09:22:30;2.78;;;1.45;;
21833;SDS011;11079;51.092;3.458;2022-12-07T09:24:57;3.78;;;1.60;;
21833;SDS011;11079;51.092;3.458;2022-12-07T09:27:23;2.35;;;1.33;;
21833;SDS011;11079;51.092;3.458;2022-12-07T09:29:49;2.30;;;1.30;;
21833;SDS011;11079;51.092;3.458;2022-12-07T09:32:15;2.47;;;1.30;;
21833;SDS011;11079;51.092;3.458;2022-12-07T09:34:40;1.80;;;1.25;;
21833;SDS011;11079;51.092;3.458;2022-12-07T09:37:06;4.47;;;1.30;;
21833;SDS011;11079;51.092;3.458;2022-12-07T09:39:32;2.85;;;1.42;;
21833;SDS011;11079;51.092;3.458;2022-12-07T09:41:58;2.10;;;1.20;;
21833;SDS011;11079;51.092;3.458;2022-12-07T09:44:27;2.10;;;1.40;;
21833;SDS011;11079;51.092;3.458;2022-12-07T09:46:53;1.58;;;1.15;;
21833;SDS011;11079;51.092;3.458;2022-12-07T09:49:20;2.28;;;1.30;;
21833;SDS011;11079;51.092;3.458;2022-12-07T09:51:47;2.50;;;1.10;;
21833;SDS011;11079;51.092;3.458;2022-12-07T09:54:24;2.58;;;1.00;;
21833;SDS011;11079;51.092;3.458;2022-12-07T09:56:50;3.40;;;1.48;;
21833;SDS011;11079;51.092;3.458;2022-12-07T09:59:18;1.50;;;1.08;;
21833;SDS011;11079;51.092;3.458;2022-12-07T10:01:45;3.35;;;1.27;;
21833;SDS011;11079;51.092;3.458;2022-12-07T10:06:43;2.05;;;1.20;;
21833;SDS011;11079;51.092;3.458;2022-12-07T10:09:20;2.90;;;1.23;;
21833;SDS011;11079;51.092;3.458;2022-12-07T10:12:00;1.83;;;1.20;;
21833;SDS011;11079;51.092;3.458;2022-12-07T10:14:35;4.55;;;1.25;;
21833;SDS011;11079;51.092;3.458;2022-12-07T10:17:02;3.75;;;1.10;;
21833;SDS011;11079;51.092;3.458;2022-12-07T10:20:08;2.97;;;1.20;;
21833;SDS011;11079;51.092;3.458;2022-12-07T10:22:37;3.10;;;1.30;;
21833;SDS011;11079;51.092;3.458;2022-12-07T10:25:18;3.40;;;1.25;;
21833;SDS011;11079;51.092;3.458;2022-12-07T10:27:45;7.97;;;1.40;;
21833;SDS011;11079;51.092;3.458;2022-12-07T10:30:49;4.55;;;1.40;;
21833;SDS011;11079;51.092;3.458;2022-12-07T10:33:32;3.80;;;1.00;;
21833;SDS011;11079;51.092;3.458;2022-12-07T10:35:58;3.55;;;1.60;;
21833;SDS011;11079;51.092;3.458;2022-12-07T10:38:26;4.07;;;1.48;;
21833;SDS011;11079;51.092;3.458;2022-12-07T10:41:02;8.32;;;1.33;;
21833;SDS011;11079;51.092;3.458;2022-12-07T10:43:32;1.65;;;1.00;;
21833;SDS011;11079;51.092;3.458;2022-12-07T10:51:48;2.92;;;1.63;;
21833;SDS011;11079;51.092;3.458;2022-12-07T11:05:23;1.88;;;0.85;;
21833;SDS011;11079;51.092;3.458;2022-12-07T11:08:21;2.53;;;1.10;;
21833;SDS011;11079;51.092;3.458;2022-12-07T11:11:43;2.28;;;1.05;;
21833;SDS011;11079;51.092;3.458;2022-12-07T11:14:11;2.90;;;1.33;;
21833;SDS011;11079;51.092;3.458;2022-12-07T11:22:16;2.90;;;1.10;;
21833;SDS011;11079;51.092;3.458;2022-12-07T11:27:45;3.75;;;1.27;;
21833;SDS011;11079;51.092;3.458;2022-12-07T11:33:46;3.92;;;0.98;;
21833;SDS011;11079;51.092;3.458;2022-12-07T11:36:43;1.98;;;1.05;;
21833;SDS011;11079;51.092;3.458;2022-12-07T11:39:16;1.27;;;0.98;;
21833;SDS011;11079;51.092;3.458;2022-12-07T11:41:46;1.58;;;1.10;;
21833;SDS011;11079;51.092;3.458;2022-12-07T11:44:31;2.13;;;1.10;;
21833;SDS011;11079;51.092;3.458;2022-12-07T11:53:53;1.77;;;0.95;;
21833;SDS011;11079;51.092;3.458;2022-12-07T11:55:57;2.05;;;0.85;;
21833;SDS011;11079;51.092;3.458;2022-12-07T12:06:37;2.15;;;1.20;;
21833;SDS011;11079;51.092;3.458;2022-12-07T12:09:41;2.00;;;1.05;;
21833;SDS011;11079;51.092;3.458;2022-12-07T12:25:40;2.00;;;1.00;;
21833;SDS011;11079;51.092;3.458;2022-12-07T12:28:29;1.45;;;0.70;;
21833;SDS011;11079;51.092;3.458;2022-12-07T12:33:52;1.80;;;1.00;;
21833;SDS011;11079;51.092;3.458;2022-12-07T12:36:22;2.35;;;1.05;;
21833;SDS011;11079;51.092;3.458;2022-12-07T12:38:50;2.35;;;0.85;;
21833;SDS011;11079;51.092;3.458;2022-12-07T12:44:01;1.77;;;1.00;;
21833;SDS011;11079;51.092;3.458;2022-12-07T12:51:41;1.48;;;1.02;;
21833;SDS011;11079;51.092;3.458;2022-12-07T12:54:19;2.40;;;1.00;;
21833;SDS011;11079;51.092;3.458;2022-12-07T12:56:55;1.88;;;1.15;;
21833;SDS011;11079;51.092;3.458;2022-12-07T12:59:30;1.65;;;0.95;;
21833;SDS011;11079;51.092;3.458;2022-12-07T13:04:51;2.60;;;1.05;;
21833;SDS011;11079;51.092;3.458;2022-12-07T13:21:01;1.40;;;0.80;;
21833;SDS011;11079;51.092;3.458;2022-12-07T13:23:31;1.50;;;0.75;;
21833;SDS011;11079;51.092;3.458;2022-12-07T13:28:50;1.65;;;0.93;;
21833;SDS011;11079;51.092;3.458;2022-12-07T13:31:37;2.17;;;0.80;;
21833;SDS011;11079;51.092;3.458;2022-12-07T13:34:27;1.27;;;0.70;;
21833;SDS011;11079;51.092;3.458;2022-12-07T13:36:56;1.50;;;0.85;;
21833;SDS011;11079;51.092;3.458;2022-12-07T13:39:23;2.13;;;1.10;;
21833;SDS011;11079;51.092;3.458;2022-12-07T13:41:57;2.50;;;1.08;;
21833;SDS011;11079;51.092;3.458;2022-12-07T13:44:25;1.38;;;0.88;;
21833;SDS011;11079;51.092;3.458;2022-12-07T13:51:55;1.30;;;0.98;;
21833;SDS011;11079;51.092;3.458;2022-12-07T13:54:46;1.20;;;0.90;;
21833;SDS011;11079;51.092;3.458;2022-12-07T13:57:12;1.35;;;0.80;;
21833;SDS011;11079;51.092;3.458;2022-12-07T13:59:38;1.73;;;0.90;;
21833;SDS011;11079;51.092;3.458;2022-12-07T14:02:16;1.42;;;0.80;;
21833;SDS011;11079;51.092;3.458;2022-12-07T14:04:45;1.17;;;1.02;;
21833;SDS011;11079;51.092;3.458;2022-12-07T14:07:26;3.70;;;1.15;;
21833;SDS011;11079;51.092;3.458;2022-12-07T14:09:57;1.30;;;0.80;;
21833;SDS011;11079;51.092;3.458;2022-12-07T14:12:28;0.65;;;0.60;;
21833;SDS011;11079;51.092;3.458;2022-12-07T14:14:55;1.23;;;0.85;;
21833;SDS011;11079;51.092;3.458;2022-12-07T14:17:22;2.28;;;0.95;;
21833;SDS011;11079;51.092;3.458;2022-12-07T14:22:24;1.67;;;0.88;;
21833;SDS011;11079;51.092;3.458;2022-12-07T14:24:50;0.63;;;0.57;;
21833;SDS011;11079;51.092;3.458;2022-12-07T14:27:23;2.17;;;1.00;;
21833;SDS011;11079;51.092;3.458;2022-12-07T14:29:55;2.10;;;0.77;;
21833;SDS011;11079;51.092;3.458;2022-12-07T14:32:25;1.38;;;0.80;;
21833;SDS011;11079;51.092;3.458;2022-12-07T14:35:08;2.00;;;0.70;;
21833;SDS011;11079;51.092;3.458;2022-12-07T14:37:35;1.73;;;0.70;;
21833;SDS011;11079;51.092;3.458;2022-12-07T14:40:02;0.77;;;0.70;;
21833;SDS011;11079;51.092;3.458;2022-12-07T14:42:29;1.17;;;0.80;;
21833;SDS011;11079;51.092;3.458;2022-12-07T14:44:56;1.00;;;0.60;;
21833;SDS011;11079;51.092;3.458;2022-12-07T14:47:22;1.20;;;0.70;;
21833;SDS011;11079;51.092;3.458;2022-12-07T14:49:49;2.05;;;0.73;;
21833;SDS011;11079;51.092;3.458;2022-12-07T14:52:33;1.13;;;0.60;;
21833;SDS011;11079;51.092;3.458;2022-12-07T14:54:58;0.95;;;0.63;;
21833;SDS011;11079;51.092;3.458;2022-12-07T14:57:24;1.17;;;0.63;;
21833;SDS011;11079;51.092;3.458;2022-12-07T14:59:50;0.60;;;0.55;;
21833;SDS011;11079;51.092;3.458;2022-12-07T15:02:16;1.73;;;1.00;;
21833;SDS011;11079;51.092;3.458;2022-12-07T15:04:42;2.25;;;0.70;;
21833;SDS011;11079;51.092;3.458;2022-12-07T15:07:18;1.15;;;0.80;;
21833;SDS011;11079;51.092;3.458;2022-12-07T15:09:45;2.30;;;0.90;;
21833;SDS011;11079;51.092;3.458;2022-12-07T15:12:11;4.40;;;1.60;;
21833;SDS011;11079;51.092;3.458;2022-12-07T15:14:36;9.10;;;3.22;;
21833;SDS011;11079;51.092;3.458;2022-12-07T15:17:03;18.95;;;3.80;;
21833;SDS011;11079;51.092;3.458;2022-12-07T15:19:29;19.00;;;5.50;;
21833;SDS011;11079;51.092;3.458;2022-12-07T15:21:55;15.93;;;5.70;;
21833;SDS011;11079;51.092;3.458;2022-12-07T15:24:21;17.02;;;4.53;;
21833;SDS011;11079;51.092;3.458;2022-12-07T15:26:48;17.27;;;4.70;;
21833;SDS011;11079;51.092;3.458;2022-12-07T15:29:14;16.60;;;5.28;;
21833;SDS011;11079;51.092;3.458;2022-12-07T15:31:40;21.27;;;5.00;;
21833;SDS011;11079;51.092;3.458;2022-12-07T15:34:06;15.35;;;4.78;;
21833;SDS011;11079;51.092;3.458;2022-12-07T15:36:33;19.02;;;4.32;;
21833;SDS011;11079;51.092;3.458;2022-12-07T15:38:59;21.02;;;5.05;;
21833;SDS011;11079;51.092;3.458;2022-12-07T15:41:25;21.88;;;5.45;;
21833;SDS011;11079;51.092;3.458;2022-12-07T15:43:51;16.38;;;4.78;;
21833;SDS011;11079;51.092;3.458;2022-12-07T15:46:37;12.95;;;4.80;;
21833;SDS011;11079;51.092;3.458;2022-12-07T15:49:05;13.70;;;4.43;;
21833;SDS011;11079;51.092;3.458;2022-12-07T15:51:34;17.05;;;5.00;;
21833;SDS011;11079;51.092;3.458;2022-12-07T15:53:59;14.77;;;4.53;;
21833;SDS011;11079;51.092;3.458;2022-12-07T15:56:25;15.20;;;4.53;;
21833;SDS011;11079;51.092;3.458;2022-12-07T15:58:51;14.27;;;4.28;;
21833;SDS011;11079;51.092;3.458;2022-12-07T16:01:17;15.18;;;4.28;;
21833;SDS011;11079;51.092;3.458;2022-12-07T16:03:44;10.90;;;4.00;;
21833;SDS011;11079;51.092;3.458;2022-12-07T16:06:10;12.18;;;4.65;;
21833;SDS011;11079;51.092;3.458;2022-12-07T16:08:36;12.93;;;3.85;;
21833;SDS011;11079;51.092;3.458;2022-12-07T16:11:05;13.60;;;4.40;;
21833;SDS011;11079;51.092;3.458;2022-12-07T16:13:31;14.23;;;4.30;;
21833;SDS011;11079;51.092;3.458;2022-12-07T16:15:58;14.27;;;4.63;;
21833;SDS011;11079;51.092;3.458;2022-12-07T16:18:26;17.30;;;4.47;;
21833;SDS011;11079;51.092;3.458;2022-12-07T16:20:52;10.20;;;4.18;;
21833;SDS011;11079;51.092;3.458;2022-12-07T16:23:17;13.45;;;3.45;;
21833;SDS011;11079;51.092;3.458;2022-12-07T16:25:43;12.27;;;3.92;;
21833;SDS011;11079;51.092;3.458;2022-12-07T16:28:09;7.10;;;3.45;;
21833;SDS011;11079;51.092;3.458;2022-12-07T16:30:34;12.80;;;4.15;;
21833;SDS011;11079;51.092;3.458;2022-12-07T16:33:00;11.23;;;3.90;;
21833;SDS011;11079;51.092;3.458;2022-12-07T16:35:25;9.48;;;2.95;;
21833;SDS011;11079;51.092;3.458;2022-12-07T16:37:51;10.25;;;3.63;;
21833;SDS011;11079;51.092;3.458;2022-12-07T16:40:17;11.68;;;3.80;;
21833;SDS011;11079;51.092;3.458;2022-12-07T16:42:42;12.23;;;3.50;;
21833;SDS011;11079;51.092;3.458;2022-12-07T16:45:08;11.18;;;4.45;;
21833;SDS011;11079;51.092;3.458;2022-12-07T16:47:36;11.32;;;3.88;;
21833;SDS011;11079;51.092;3.458;2022-12-07T16:50:03;9.82;;;3.88;;
21833;SDS011;11079;51.092;3.458;2022-12-07T16:52:29;9.68;;;2.95;;
21833;SDS011;11079;51.092;3.458;2022-12-07T16:54:54;9.73;;;3.42;;